sensor_id;sensor_type;location;lat;lon;timestamp;temperature;humidity
20714;DHT22;10518;50.742;4.226;2023-03-29T00:01:12;10.10;99.90
20714;DHT22;10518;50.742;4.226;2023-03-29T00:03:37;9.90;99.90
20714;DHT22;10518;50.742;4.226;2023-03-29T00:06:05;9.90;99.90
20714;DHT22;10518;50.742;4.226;2023-03-29T00:08:31;10.10;99.90
20714;DHT22;10518;50.742;4.226;2023-03-29T00:10:58;10.10;99.90
20714;DHT22;10518;50.742;4.226;2023-03-29T00:13:25;10.00;99.90
20714;DHT22;10518;50.742;4.226;2023-03-29T00:15:52;9.70;99.90
20714;DHT22;10518;50.742;4.226;2023-03-29T00:18:18;9.80;99.90
20714;DHT22;10518;50.742;4.226;2023-03-29T00:20:44;9.70;99.90
20714;DHT22;10518;50.742;4.226;2023-03-29T00:23:10;9.80;99.90
20714;DHT22;10518;50.742;4.226;2023-03-29T00:25:35;10.00;99.90
20714;DHT22;10518;50.742;4.226;2023-03-29T00:28:01;10.10;99.90
20714;DHT22;10518;50.742;4.226;2023-03-29T00:30:27;10.10;99.90
20714;DHT22;10518;50.742;4.226;2023-03-29T00:32:52;10.10;99.90
20714;DHT22;10518;50.742;4.226;2023-03-29T00:35:18;9.80;99.90
20714;DHT22;10518;50.742;4.226;2023-03-29T00:37:44;9.90;99.90
20714;DHT22;10518;50.742;4.226;2023-03-29T00:40:12;10.10;99.90
20714;DHT22;10518;50.742;4.226;2023-03-29T00:42:38;9.80;99.90
20714;DHT22;10518;50.742;4.226;2023-03-29T00:45:15;10.00;99.90
20714;DHT22;10518;50.742;4.226;2023-03-29T00:47:49;10.10;99.90
20714;DHT22;10518;50.742;4.226;2023-03-29T00:53:05;9.90;99.90
20714;DHT22;10518;50.742;4.226;2023-03-29T00:55:40;9.80;99.90
20714;DHT22;10518;50.742;4.226;2023-03-29T00:58:08;9.90;99.90
20714;DHT22;10518;50.742;4.226;2023-03-29T01:00:41;9.90;99.90
20714;DHT22;10518;50.742;4.226;2023-03-29T01:03:11;10.00;99.90
20714;DHT22;10518;50.742;4.226;2023-03-29T01:05:41;9.70;99.90
20714;DHT22;10518;50.742;4.226;2023-03-29T01:08:31;9.70;99.90
20714;DHT22;10518;50.742;4.226;2023-03-29T01:11:20;9.80;99.90
20714;DHT22;10518;50.742;4.226;2023-03-29T01:13:59;10.10;99.90
20714;DHT22;10518;50.742;4.226;2023-03-29T01:16:28;10.00;99.90
20714;DHT22;10518;50.742;4.226;2023-03-29T01:18:55;9.80;99.90
20714;DHT22;10518;50.742;4.226;2023-03-29T01:21:32;10.00;99.90
20714;DHT22;10518;50.742;4.226;2023-03-29T01:26:58;10.00;99.90
20714;DHT22;10518;50.742;4.226;2023-03-29T01:29:50;10.20;99.90
20714;DHT22;10518;50.742;4.226;2023-03-29T01:32:21;10.20;99.90
20714;DHT22;10518;50.742;4.226;2023-03-29T01:37:30;10.20;99.90
20714;DHT22;10518;50.742;4.226;2023-03-29T01:39:59;10.20;99.90
20714;DHT22;10518;50.742;4.226;2023-03-29T01:42:41;10.30;99.90
20714;DHT22;10518;50.742;4.226;2023-03-29T01:45:24;10.20;99.90
20714;DHT22;10518;50.742;4.226;2023-03-29T01:55:46;10.10;99.90
20714;DHT22;10518;50.742;4.226;2023-03-29T01:58:16;10.00;99.90
20714;DHT22;10518;50.742;4.226;2023-03-29T02:00:42;10.00;99.90
20714;DHT22;10518;50.742;4.226;2023-03-29T02:03:09;10.10;99.90
20714;DHT22;10518;50.742;4.226;2023-03-29T02:05:37;10.20;99.90
20714;DHT22;10518;50.742;4.226;2023-03-29T02:08:05;10.30;99.90
20714;DHT22;10518;50.742;4.226;2023-03-29T02:10:33;10.10;99.90
20714;DHT22;10518;50.742;4.226;2023-03-29T02:12:59;10.10;99.90
20714;DHT22;10518;50.742;4.226;2023-03-29T02:15:25;10.20;99.90
20714;DHT22;10518;50.742;4.226;2023-03-29T02:17:51;10.20;99.90
20714;DHT22;10518;50.742;4.226;2023-03-29T02:20:25;10.30;99.90
20714;DHT22;10518;50.742;4.226;2023-03-29T02:23:00;10.20;99.90
20714;DHT22;10518;50.742;4.226;2023-03-29T02:25:27;10.30;99.90
20714;DHT22;10518;50.742;4.226;2023-03-29T02:27:54;10.30;99.90
20714;DHT22;10518;50.742;4.226;2023-03-29T02:30:22;10.00;99.90
20714;DHT22;10518;50.742;4.226;2023-03-29T02:35:31;10.00;99.90
20714;DHT22;10518;50.742;4.226;2023-03-29T02:38:02;10.20;99.90
20714;DHT22;10518;50.742;4.226;2023-03-29T02:40:30;10.20;99.90
20714;DHT22;10518;50.742;4.226;2023-03-29T02:43:00;10.30;99.90
20714;DHT22;10518;50.742;4.226;2023-03-29T02:45:26;10.40;99.90
20714;DHT22;10518;50.742;4.226;2023-03-29T02:47:55;10.40;99.90
20714;DHT22;10518;50.742;4.226;2023-03-29T02:50:23;10.40;99.90
20714;DHT22;10518;50.742;4.226;2023-03-29T02:52:57;10.40;99.90
20714;DHT22;10518;50.742;4.226;2023-03-29T02:55:26;10.20;99.90
20714;DHT22;10518;50.742;4.226;2023-03-29T02:57:56;10.30;99.90
20714;DHT22;10518;50.742;4.226;2023-03-29T03:00:22;10.40;99.90
20714;DHT22;10518;50.742;4.226;2023-03-29T03:02:48;10.40;99.90
20714;DHT22;10518;50.742;4.226;2023-03-29T03:05:15;10.30;99.90
20714;DHT22;10518;50.742;4.226;2023-03-29T03:07:42;10.30;99.90
20714;DHT22;10518;50.742;4.226;2023-03-29T03:10:08;10.40;99.90
20714;DHT22;10518;50.742;4.226;2023-03-29T03:12:34;10.40;99.90
20714;DHT22;10518;50.742;4.226;2023-03-29T03:15:03;10.40;99.90
20714;DHT22;10518;50.742;4.226;2023-03-29T03:17:28;10.40;99.90
20714;DHT22;10518;50.742;4.226;2023-03-29T03:19:57;10.40;99.90
20714;DHT22;10518;50.742;4.226;2023-03-29T03:22:23;10.40;99.90
20714;DHT22;10518;50.742;4.226;2023-03-29T03:24:49;10.30;99.90
20714;DHT22;10518;50.742;4.226;2023-03-29T03:27:15;10.40;99.90
20714;DHT22;10518;50.742;4.226;2023-03-29T03:29:40;10.50;99.90
20714;DHT22;10518;50.742;4.226;2023-03-29T03:32:06;10.40;99.90
20714;DHT22;10518;50.742;4.226;2023-03-29T03:34:32;10.40;99.90
20714;DHT22;10518;50.742;4.226;2023-03-29T03:36:59;10.30;99.90
20714;DHT22;10518;50.742;4.226;2023-03-29T03:39:26;10.20;99.90
20714;DHT22;10518;50.742;4.226;2023-03-29T03:41:51;10.10;99.90
20714;DHT22;10518;50.742;4.226;2023-03-29T03:44:17;10.40;99.90
20714;DHT22;10518;50.742;4.226;2023-03-29T03:46:42;10.40;99.90
20714;DHT22;10518;50.742;4.226;2023-03-29T03:49:08;10.20;99.90
20714;DHT22;10518;50.742;4.226;2023-03-29T03:51:33;10.10;99.90
20714;DHT22;10518;50.742;4.226;2023-03-29T03:53:59;10.00;99.90
20714;DHT22;10518;50.742;4.226;2023-03-29T03:56:25;9.80;99.90
20714;DHT22;10518;50.742;4.226;2023-03-29T03:58:54;9.80;99.90
20714;DHT22;10518;50.742;4.226;2023-03-29T04:01:21;9.80;99.90
20714;DHT22;10518;50.742;4.226;2023-03-29T04:03:46;9.80;99.90
20714;DHT22;10518;50.742;4.226;2023-03-29T04:06:12;9.70;99.90
20714;DHT22;10518;50.742;4.226;2023-03-29T04:08:37;9.70;99.90
20714;DHT22;10518;50.742;4.226;2023-03-29T04:11:03;9.50;99.90
20714;DHT22;10518;50.742;4.226;2023-03-29T04:13:29;9.40;99.90
20714;DHT22;10518;50.742;4.226;2023-03-29T04:15:55;9.20;99.90
20714;DHT22;10518;50.742;4.226;2023-03-29T04:18:23;9.20;99.90
20714;DHT22;10518;50.742;4.226;2023-03-29T04:20:49;9.30;99.90
20714;DHT22;10518;50.742;4.226;2023-03-29T04:23:16;9.40;99.90
20714;DHT22;10518;50.742;4.226;2023-03-29T04:25:42;9.40;99.90
20714;DHT22;10518;50.742;4.226;2023-03-29T04:28:09;9.60;99.90
20714;DHT22;10518;50.742;4.226;2023-03-29T04:30:35;9.60;99.90
20714;DHT22;10518;50.742;4.226;2023-03-29T04:33:00;9.50;99.90
20714;DHT22;10518;50.742;4.226;2023-03-29T04:35:26;9.50;99.90
20714;DHT22;10518;50.742;4.226;2023-03-29T04:37:52;9.70;99.90
20714;DHT22;10518;50.742;4.226;2023-03-29T04:40:19;9.90;99.90
20714;DHT22;10518;50.742;4.226;2023-03-29T04:42:45;9.90;99.90
20714;DHT22;10518;50.742;4.226;2023-03-29T04:45:14;9.90;99.90
20714;DHT22;10518;50.742;4.226;2023-03-29T04:47:42;9.80;99.90
20714;DHT22;10518;50.742;4.226;2023-03-29T04:50:09;9.90;99.90
20714;DHT22;10518;50.742;4.226;2023-03-29T04:52:35;10.00;99.90
20714;DHT22;10518;50.742;4.226;2023-03-29T04:55:02;10.00;99.90
20714;DHT22;10518;50.742;4.226;2023-03-29T04:57:28;10.20;99.90
20714;DHT22;10518;50.742;4.226;2023-03-29T04:59:54;10.20;99.90
20714;DHT22;10518;50.742;4.226;2023-03-29T05:02:20;10.20;99.90
20714;DHT22;10518;50.742;4.226;2023-03-29T05:04:46;10.20;99.90
20714;DHT22;10518;50.742;4.226;2023-03-29T05:07:11;10.30;99.90
20714;DHT22;10518;50.742;4.226;2023-03-29T05:09:40;10.40;99.90
20714;DHT22;10518;50.742;4.226;2023-03-29T05:12:06;10.30;99.90
20714;DHT22;10518;50.742;4.226;2023-03-29T05:14:32;10.30;99.90
20714;DHT22;10518;50.742;4.226;2023-03-29T05:16:58;10.20;99.90
20714;DHT22;10518;50.742;4.226;2023-03-29T05:19:23;10.10;99.90
20714;DHT22;10518;50.742;4.226;2023-03-29T05:21:49;10.20;99.90
20714;DHT22;10518;50.742;4.226;2023-03-29T05:24:15;10.30;99.90
20714;DHT22;10518;50.742;4.226;2023-03-29T05:26:42;10.10;99.90
20714;DHT22;10518;50.742;4.226;2023-03-29T05:29:08;10.20;99.90
20714;DHT22;10518;50.742;4.226;2023-03-29T05:31:35;10.00;99.90
20714;DHT22;10518;50.742;4.226;2023-03-29T05:34:02;10.00;99.90
20714;DHT22;10518;50.742;4.226;2023-03-29T05:36:29;10.20;99.90
20714;DHT22;10518;50.742;4.226;2023-03-29T05:38:54;10.30;99.90
20714;DHT22;10518;50.742;4.226;2023-03-29T05:41:21;10.30;99.90
20714;DHT22;10518;50.742;4.226;2023-03-29T05:43:48;10.40;99.90
20714;DHT22;10518;50.742;4.226;2023-03-29T05:46:13;10.50;99.90
20714;DHT22;10518;50.742;4.226;2023-03-29T05:48:39;10.40;99.90
20714;DHT22;10518;50.742;4.226;2023-03-29T05:51:05;10.30;99.90
20714;DHT22;10518;50.742;4.226;2023-03-29T05:53:30;10.40;99.90
20714;DHT22;10518;50.742;4.226;2023-03-29T05:55:56;10.60;99.90
20714;DHT22;10518;50.742;4.226;2023-03-29T05:58:22;10.60;99.90
20714;DHT22;10518;50.742;4.226;2023-03-29T06:00:51;10.60;99.90
20714;DHT22;10518;50.742;4.226;2023-03-29T06:03:19;10.60;99.90
20714;DHT22;10518;50.742;4.226;2023-03-29T06:05:46;10.30;99.90
20714;DHT22;10518;50.742;4.226;2023-03-29T06:08:14;10.20;99.90
20714;DHT22;10518;50.742;4.226;2023-03-29T06:10:41;10.30;99.90
20714;DHT22;10518;50.742;4.226;2023-03-29T06:13:07;10.50;99.90
20714;DHT22;10518;50.742;4.226;2023-03-29T06:15:33;10.40;99.90
20714;DHT22;10518;50.742;4.226;2023-03-29T06:18:00;10.60;99.90
20714;DHT22;10518;50.742;4.226;2023-03-29T06:20:26;10.70;99.90
20714;DHT22;10518;50.742;4.226;2023-03-29T06:22:51;10.70;99.90
20714;DHT22;10518;50.742;4.226;2023-03-29T06:25:18;10.80;99.90
20714;DHT22;10518;50.742;4.226;2023-03-29T06:27:44;10.80;99.90
20714;DHT22;10518;50.742;4.226;2023-03-29T06:30:16;10.80;99.90
20714;DHT22;10518;50.742;4.226;2023-03-29T06:32:41;10.90;99.90
20714;DHT22;10518;50.742;4.226;2023-03-29T06:35:08;10.90;99.90
20714;DHT22;10518;50.742;4.226;2023-03-29T06:37:34;10.90;99.90
20714;DHT22;10518;50.742;4.226;2023-03-29T06:39:59;11.00;99.90
20714;DHT22;10518;50.742;4.226;2023-03-29T06:42:26;11.10;99.90
20714;DHT22;10518;50.742;4.226;2023-03-29T06:44:51;10.90;99.90
20714;DHT22;10518;50.742;4.226;2023-03-29T06:47:17;11.20;99.90
20714;DHT22;10518;50.742;4.226;2023-03-29T06:49:43;11.40;99.90
20714;DHT22;10518;50.742;4.226;2023-03-29T06:52:09;11.20;99.90
20714;DHT22;10518;50.742;4.226;2023-03-29T06:54:35;11.50;99.90
20714;DHT22;10518;50.742;4.226;2023-03-29T06:57:01;11.70;99.90
20714;DHT22;10518;50.742;4.226;2023-03-29T06:59:28;11.80;99.90
20714;DHT22;10518;50.742;4.226;2023-03-29T07:01:54;11.90;99.90
20714;DHT22;10518;50.742;4.226;2023-03-29T07:04:21;11.90;99.90
20714;DHT22;10518;50.742;4.226;2023-03-29T07:06:49;11.90;99.90
20714;DHT22;10518;50.742;4.226;2023-03-29T07:09:28;11.50;99.90
20714;DHT22;10518;50.742;4.226;2023-03-29T07:11:55;11.40;99.90
20714;DHT22;10518;50.742;4.226;2023-03-29T07:14:21;11.90;99.90
20714;DHT22;10518;50.742;4.226;2023-03-29T07:16:47;11.90;99.90
20714;DHT22;10518;50.742;4.226;2023-03-29T07:19:16;12.20;99.90
20714;DHT22;10518;50.742;4.226;2023-03-29T07:21:41;12.40;99.90
20714;DHT22;10518;50.742;4.226;2023-03-29T07:24:07;12.60;99.90
20714;DHT22;10518;50.742;4.226;2023-03-29T07:26:34;12.60;99.90
20714;DHT22;10518;50.742;4.226;2023-03-29T07:29:00;12.40;99.90
20714;DHT22;10518;50.742;4.226;2023-03-29T07:31:25;12.60;99.90
20714;DHT22;10518;50.742;4.226;2023-03-29T07:33:53;12.60;99.90
20714;DHT22;10518;50.742;4.226;2023-03-29T07:36:20;12.60;99.90
20714;DHT22;10518;50.742;4.226;2023-03-29T07:38:46;12.60;99.90
20714;DHT22;10518;50.742;4.226;2023-03-29T07:41:13;12.70;99.90
20714;DHT22;10518;50.742;4.226;2023-03-29T07:43:38;12.90;99.90
20714;DHT22;10518;50.742;4.226;2023-03-29T07:46:04;12.80;99.90
20714;DHT22;10518;50.742;4.226;2023-03-29T07:48:31;12.60;99.90
20714;DHT22;10518;50.742;4.226;2023-03-29T07:50:58;12.80;99.90
20714;DHT22;10518;50.742;4.226;2023-03-29T07:53:23;12.70;99.90
20714;DHT22;10518;50.742;4.226;2023-03-29T07:55:49;12.80;99.90
20714;DHT22;10518;50.742;4.226;2023-03-29T07:58:16;12.80;99.90
20714;DHT22;10518;50.742;4.226;2023-03-29T08:00:42;12.80;99.90
20714;DHT22;10518;50.742;4.226;2023-03-29T08:03:11;12.90;99.90
20714;DHT22;10518;50.742;4.226;2023-03-29T08:05:39;13.10;99.90
20714;DHT22;10518;50.742;4.226;2023-03-29T08:08:05;13.20;99.90
20714;DHT22;10518;50.742;4.226;2023-03-29T08:10:31;13.30;99.90
20714;DHT22;10518;50.742;4.226;2023-03-29T08:12:59;13.40;99.90
20714;DHT22;10518;50.742;4.226;2023-03-29T08:15:25;13.60;99.90
20714;DHT22;10518;50.742;4.226;2023-03-29T08:17:52;13.60;99.90
20714;DHT22;10518;50.742;4.226;2023-03-29T08:20:18;13.50;99.90
20714;DHT22;10518;50.742;4.226;2023-03-29T08:22:44;13.70;99.90
20714;DHT22;10518;50.742;4.226;2023-03-29T08:25:10;13.80;99.90
20714;DHT22;10518;50.742;4.226;2023-03-29T08:27:36;13.90;99.90
20714;DHT22;10518;50.742;4.226;2023-03-29T08:30:06;14.00;99.90
20714;DHT22;10518;50.742;4.226;2023-03-29T08:32:32;14.10;99.90
20714;DHT22;10518;50.742;4.226;2023-03-29T08:34:58;14.30;99.90
20714;DHT22;10518;50.742;4.226;2023-03-29T08:37:23;14.20;99.90
20714;DHT22;10518;50.742;4.226;2023-03-29T08:39:50;14.30;99.90
20714;DHT22;10518;50.742;4.226;2023-03-29T08:42:37;14.30;99.90
20714;DHT22;10518;50.742;4.226;2023-03-29T08:45:08;14.10;99.90
20714;DHT22;10518;50.742;4.226;2023-03-29T08:50:34;14.80;99.90
20714;DHT22;10518;50.742;4.226;2023-03-29T08:53:04;15.00;99.90
20714;DHT22;10518;50.742;4.226;2023-03-29T08:55:38;15.10;99.90
20714;DHT22;10518;50.742;4.226;2023-03-29T08:58:10;15.10;99.90
20714;DHT22;10518;50.742;4.226;2023-03-29T09:00:42;15.10;99.90
20714;DHT22;10518;50.742;4.226;2023-03-29T09:05:56;15.40;99.90
20714;DHT22;10518;50.742;4.226;2023-03-29T09:08:23;15.60;99.90
20714;DHT22;10518;50.742;4.226;2023-03-29T09:11:11;15.70;99.90
20714;DHT22;10518;50.742;4.226;2023-03-29T09:27:32;16.50;99.90
20714;DHT22;10518;50.742;4.226;2023-03-29T09:32:38;16.30;99.90
20714;DHT22;10518;50.742;4.226;2023-03-29T09:37:58;16.40;99.90
20714;DHT22;10518;50.742;4.226;2023-03-29T09:41:01;16.50;99.90
20714;DHT22;10518;50.742;4.226;2023-03-29T09:43:28;17.00;99.90
20714;DHT22;10518;50.742;4.226;2023-03-29T09:45:57;17.40;99.90
20714;DHT22;10518;50.742;4.226;2023-03-29T09:48:28;17.60;99.90
20714;DHT22;10518;50.742;4.226;2023-03-29T09:50:56;17.60;99.90
20714;DHT22;10518;50.742;4.226;2023-03-29T09:53:22;17.50;99.90
20714;DHT22;10518;50.742;4.226;2023-03-29T09:55:49;17.40;99.90
20714;DHT22;10518;50.742;4.226;2023-03-29T09:58:17;17.30;99.90
20714;DHT22;10518;50.742;4.226;2023-03-29T10:00:45;17.20;99.90
20714;DHT22;10518;50.742;4.226;2023-03-29T10:03:24;17.30;99.90
20714;DHT22;10518;50.742;4.226;2023-03-29T10:05:51;17.60;99.90
20714;DHT22;10518;50.742;4.226;2023-03-29T10:08:27;17.80;99.90
20714;DHT22;10518;50.742;4.226;2023-03-29T10:10:57;17.50;99.90
20714;DHT22;10518;50.742;4.226;2023-03-29T10:13:28;17.20;99.90
20714;DHT22;10518;50.742;4.226;2023-03-29T10:16:05;17.50;99.90
20714;DHT22;10518;50.742;4.226;2023-03-29T10:18:33;17.60;99.90
20714;DHT22;10518;50.742;4.226;2023-03-29T10:21:03;17.60;99.90
20714;DHT22;10518;50.742;4.226;2023-03-29T10:23:31;17.40;99.90
20714;DHT22;10518;50.742;4.226;2023-03-29T10:25:58;17.60;99.90
20714;DHT22;10518;50.742;4.226;2023-03-29T10:28:24;18.10;99.90
20714;DHT22;10518;50.742;4.226;2023-03-29T10:30:53;17.90;99.90
20714;DHT22;10518;50.742;4.226;2023-03-29T10:33:21;18.00;99.90
20714;DHT22;10518;50.742;4.226;2023-03-29T10:35:49;18.30;99.90
20714;DHT22;10518;50.742;4.226;2023-03-29T10:38:17;18.30;99.90
20714;DHT22;10518;50.742;4.226;2023-03-29T10:40:48;18.50;99.90
20714;DHT22;10518;50.742;4.226;2023-03-29T10:43:32;18.60;99.90
20714;DHT22;10518;50.742;4.226;2023-03-29T10:49:38;18.70;99.90
20714;DHT22;10518;50.742;4.226;2023-03-29T10:51:36;18.70;99.90
20714;DHT22;10518;50.742;4.226;2023-03-29T10:54:02;18.40;99.90
20714;DHT22;10518;50.742;4.226;2023-03-29T10:56:54;18.30;99.90
20714;DHT22;10518;50.742;4.226;2023-03-29T11:04:59;18.70;99.90
20714;DHT22;10518;50.742;4.226;2023-03-29T11:10:40;18.50;99.90
20714;DHT22;10518;50.742;4.226;2023-03-29T11:21:41;19.20;99.90
20714;DHT22;10518;50.742;4.226;2023-03-29T11:37:54;18.80;99.90
20714;DHT22;10518;50.742;4.226;2023-03-29T11:43:45;18.90;99.90
20714;DHT22;10518;50.742;4.226;2023-03-29T11:46:20;18.90;99.90
20714;DHT22;10518;50.742;4.226;2023-03-29T11:51:38;19.30;99.90
20714;DHT22;10518;50.742;4.226;2023-03-29T11:57:04;19.00;99.90
20714;DHT22;10518;50.742;4.226;2023-03-29T11:59:32;18.70;99.90
20714;DHT22;10518;50.742;4.226;2023-03-29T12:02:27;18.80;99.90
20714;DHT22;10518;50.742;4.226;2023-03-29T12:04:58;18.80;99.90
20714;DHT22;10518;50.742;4.226;2023-03-29T12:07:39;18.90;99.90
20714;DHT22;10518;50.742;4.226;2023-03-29T12:10:20;19.10;99.90
20714;DHT22;10518;50.742;4.226;2023-03-29T12:13:04;18.90;99.90
20714;DHT22;10518;50.742;4.226;2023-03-29T12:15:35;19.00;99.90
20714;DHT22;10518;50.742;4.226;2023-03-29T12:18:23;19.10;99.90
20714;DHT22;10518;50.742;4.226;2023-03-29T12:21:00;19.10;99.90
20714;DHT22;10518;50.742;4.226;2023-03-29T12:23:29;19.20;99.90
20714;DHT22;10518;50.742;4.226;2023-03-29T12:33:58;19.50;99.90
20714;DHT22;10518;50.742;4.226;2023-03-29T12:39:30;19.50;99.90
20714;DHT22;10518;50.742;4.226;2023-03-29T12:42:19;19.80;99.90
20714;DHT22;10518;50.742;4.226;2023-03-29T12:44:49;20.00;99.90
20714;DHT22;10518;50.742;4.226;2023-03-29T12:47:22;20.20;99.90
20714;DHT22;10518;50.742;4.226;2023-03-29T12:50:26;20.20;99.90
20714;DHT22;10518;50.742;4.226;2023-03-29T12:53:02;20.20;99.90
20714;DHT22;10518;50.742;4.226;2023-03-29T12:55:32;20.30;99.90
20714;DHT22;10518;50.742;4.226;2023-03-29T12:58:05;20.30;99.90
20714;DHT22;10518;50.742;4.226;2023-03-29T13:03:21;20.20;99.90
20714;DHT22;10518;50.742;4.226;2023-03-29T13:06:02;19.80;99.90
20714;DHT22;10518;50.742;4.226;2023-03-29T13:11:00;19.50;99.90
20714;DHT22;10518;50.742;4.226;2023-03-29T13:13:32;19.50;99.90
20714;DHT22;10518;50.742;4.226;2023-03-29T13:16:16;19.30;99.90
20714;DHT22;10518;50.742;4.226;2023-03-29T13:22:23;19.50;99.90
20714;DHT22;10518;50.742;4.226;2023-03-29T13:24:53;19.80;99.90
20714;DHT22;10518;50.742;4.226;2023-03-29T13:32:57;20.20;99.90
20714;DHT22;10518;50.742;4.226;2023-03-29T13:35:39;20.20;99.90
20714;DHT22;10518;50.742;4.226;2023-03-29T13:40:45;20.60;99.90
20714;DHT22;10518;50.742;4.226;2023-03-29T13:43:29;20.50;99.90
20714;DHT22;10518;50.742;4.226;2023-03-29T13:53:51;20.20;99.90
20714;DHT22;10518;50.742;4.226;2023-03-29T13:56:23;20.20;99.90
20714;DHT22;10518;50.742;4.226;2023-03-29T13:58:55;19.90;99.90
20714;DHT22;10518;50.742;4.226;2023-03-29T14:01:39;19.90;99.90
20714;DHT22;10518;50.742;4.226;2023-03-29T14:04:20;19.70;99.90
20714;DHT22;10518;50.742;4.226;2023-03-29T14:06:50;19.60;99.90
20714;DHT22;10518;50.742;4.226;2023-03-29T14:09:18;19.50;99.90
20714;DHT22;10518;50.742;4.226;2023-03-29T14:11:45;19.60;99.90
20714;DHT22;10518;50.742;4.226;2023-03-29T14:14:11;19.60;99.90
20714;DHT22;10518;50.742;4.226;2023-03-29T14:16:39;19.60;99.90
20714;DHT22;10518;50.742;4.226;2023-03-29T14:19:14;19.50;99.90
20714;DHT22;10518;50.742;4.226;2023-03-29T14:21:42;19.80;99.90
20714;DHT22;10518;50.742;4.226;2023-03-29T14:24:11;19.70;99.90
20714;DHT22;10518;50.742;4.226;2023-03-29T14:26:37;19.50;99.90
20714;DHT22;10518;50.742;4.226;2023-03-29T14:29:09;19.40;99.90
20714;DHT22;10518;50.742;4.226;2023-03-29T14:31:37;19.40;99.90
20714;DHT22;10518;50.742;4.226;2023-03-29T14:34:09;19.40;99.90
20714;DHT22;10518;50.742;4.226;2023-03-29T14:36:36;19.40;99.90
20714;DHT22;10518;50.742;4.226;2023-03-29T14:39:16;19.20;99.90
20714;DHT22;10518;50.742;4.226;2023-03-29T14:41:48;19.30;99.90
20714;DHT22;10518;50.742;4.226;2023-03-29T14:44:15;19.30;99.90
20714;DHT22;10518;50.742;4.226;2023-03-29T14:46:40;19.30;99.90
20714;DHT22;10518;50.742;4.226;2023-03-29T14:49:10;19.20;99.90
20714;DHT22;10518;50.742;4.226;2023-03-29T14:51:37;19.30;99.90
20714;DHT22;10518;50.742;4.226;2023-03-29T14:54:05;19.30;99.90
20714;DHT22;10518;50.742;4.226;2023-03-29T14:56:31;19.40;99.90
20714;DHT22;10518;50.742;4.226;2023-03-29T14:58:59;19.30;99.90
20714;DHT22;10518;50.742;4.226;2023-03-29T15:01:26;19.50;99.90
20714;DHT22;10518;50.742;4.226;2023-03-29T15:04:09;19.50;99.90
20714;DHT22;10518;50.742;4.226;2023-03-29T15:06:40;19.70;99.90
20714;DHT22;10518;50.742;4.226;2023-03-29T15:09:29;19.70;99.90
20714;DHT22;10518;50.742;4.226;2023-03-29T15:11:58;19.60;99.90
20714;DHT22;10518;50.742;4.226;2023-03-29T15:14:26;19.60;99.90
20714;DHT22;10518;50.742;4.226;2023-03-29T15:16:57;19.40;99.90
20714;DHT22;10518;50.742;4.226;2023-03-29T15:19:25;19.30;99.90
20714;DHT22;10518;50.742;4.226;2023-03-29T15:21:51;19.40;99.90
20714;DHT22;10518;50.742;4.226;2023-03-29T15:24:46;19.60;99.90
20714;DHT22;10518;50.742;4.226;2023-03-29T15:27:17;19.80;99.90
20714;DHT22;10518;50.742;4.226;2023-03-29T15:29:44;19.80;99.90
20714;DHT22;10518;50.742;4.226;2023-03-29T15:32:30;19.70;99.90
20714;DHT22;10518;50.742;4.226;2023-03-29T15:34:59;19.60;99.90
20714;DHT22;10518;50.742;4.226;2023-03-29T15:37:25;19.70;99.90
20714;DHT22;10518;50.742;4.226;2023-03-29T15:39:51;19.70;99.90
20714;DHT22;10518;50.742;4.226;2023-03-29T15:42:17;19.90;99.90
20714;DHT22;10518;50.742;4.226;2023-03-29T15:44:43;19.80;99.90
20714;DHT22;10518;50.742;4.226;2023-03-29T15:47:09;19.70;99.90
20714;DHT22;10518;50.742;4.226;2023-03-29T15:49:35;19.40;99.90
20714;DHT22;10518;50.742;4.226;2023-03-29T15:52:00;19.30;99.90
20714;DHT22;10518;50.742;4.226;2023-03-29T15:54:26;19.40;99.90
20714;DHT22;10518;50.742;4.226;2023-03-29T15:56:55;19.50;99.90
20714;DHT22;10518;50.742;4.226;2023-03-29T15:59:24;19.40;99.90
20714;DHT22;10518;50.742;4.226;2023-03-29T16:01:49;19.40;99.90
20714;DHT22;10518;50.742;4.226;2023-03-29T16:04:17;19.50;99.90
20714;DHT22;10518;50.742;4.226;2023-03-29T16:06:46;19.50;99.90
20714;DHT22;10518;50.742;4.226;2023-03-29T16:09:13;19.40;99.90
20714;DHT22;10518;50.742;4.226;2023-03-29T16:11:40;19.20;99.90
20714;DHT22;10518;50.742;4.226;2023-03-29T16:14:19;19.30;99.90
20714;DHT22;10518;50.742;4.226;2023-03-29T16:16:45;19.40;99.90
20714;DHT22;10518;50.742;4.226;2023-03-29T16:19:11;19.20;99.90
20714;DHT22;10518;50.742;4.226;2023-03-29T16:21:37;19.30;99.90
20714;DHT22;10518;50.742;4.226;2023-03-29T16:24:03;19.20;99.90
20714;DHT22;10518;50.742;4.226;2023-03-29T16:26:28;19.00;99.90
20714;DHT22;10518;50.742;4.226;2023-03-29T16:28:55;19.00;99.90
20714;DHT22;10518;50.742;4.226;2023-03-29T16:31:21;18.90;99.90
20714;DHT22;10518;50.742;4.226;2023-03-29T16:33:47;18.90;99.90
20714;DHT22;10518;50.742;4.226;2023-03-29T16:36:14;18.70;99.90
20714;DHT22;10518;50.742;4.226;2023-03-29T16:38:40;18.90;99.90
20714;DHT22;10518;50.742;4.226;2023-03-29T16:41:05;18.90;99.90
20714;DHT22;10518;50.742;4.226;2023-03-29T16:43:31;18.90;99.90
20714;DHT22;10518;50.742;4.226;2023-03-29T16:45:57;18.70;99.90
20714;DHT22;10518;50.742;4.226;2023-03-29T16:48:23;18.60;99.90
20714;DHT22;10518;50.742;4.226;2023-03-29T16:50:48;18.80;99.90
20714;DHT22;10518;50.742;4.226;2023-03-29T16:53:17;18.70;99.90
20714;DHT22;10518;50.742;4.226;2023-03-29T16:55:46;18.70;99.90
20714;DHT22;10518;50.742;4.226;2023-03-29T16:58:12;18.60;99.90
20714;DHT22;10518;50.742;4.226;2023-03-29T17:00:39;18.60;99.90
20714;DHT22;10518;50.742;4.226;2023-03-29T17:03:05;18.50;99.90
20714;DHT22;10518;50.742;4.226;2023-03-29T17:05:32;18.30;99.90
20714;DHT22;10518;50.742;4.226;2023-03-29T17:08:04;18.40;99.90
20714;DHT22;10518;50.742;4.226;2023-03-29T17:10:30;18.60;99.90
20714;DHT22;10518;50.742;4.226;2023-03-29T17:12:56;18.50;99.90
20714;DHT22;10518;50.742;4.226;2023-03-29T17:15:21;18.50;99.90
20714;DHT22;10518;50.742;4.226;2023-03-29T17:17:47;18.50;99.90
20714;DHT22;10518;50.742;4.226;2023-03-29T17:20:13;18.50;99.90
20714;DHT22;10518;50.742;4.226;2023-03-29T17:22:39;18.30;99.90
20714;DHT22;10518;50.742;4.226;2023-03-29T17:25:06;18.00;99.90
20714;DHT22;10518;50.742;4.226;2023-03-29T17:27:35;18.10;99.90
20714;DHT22;10518;50.742;4.226;2023-03-29T17:30:03;18.00;99.90
20714;DHT22;10518;50.742;4.226;2023-03-29T17:32:29;18.10;99.90
20714;DHT22;10518;50.742;4.226;2023-03-29T17:34:55;18.20;99.90
20714;DHT22;10518;50.742;4.226;2023-03-29T17:37:21;18.20;99.90
20714;DHT22;10518;50.742;4.226;2023-03-29T17:39:47;18.00;99.90
20714;DHT22;10518;50.742;4.226;2023-03-29T17:42:12;17.90;99.90
20714;DHT22;10518;50.742;4.226;2023-03-29T17:44:38;17.90;99.90
20714;DHT22;10518;50.742;4.226;2023-03-29T17:47:04;18.00;99.90